createdAt,value
2023-05-17T00:01:44.191Z,6.25
2023-05-17T00:04:48.156Z,9.63
2023-05-17T00:07:52.405Z,6.05
2023-05-17T00:10:56.201Z,5.97
2023-05-17T00:14:00.280Z,6.72
2023-05-17T00:17:04.394Z,9.95
2023-05-17T00:20:08.873Z,12.38
2023-05-17T00:23:12.448Z,7.88
2023-05-17T00:26:16.536Z,9.75
2023-05-17T00:29:21.128Z,10.68
2023-05-17T00:32:25.460Z,10.18
2023-05-17T00:35:29.622Z,10.05
2023-05-17T00:38:33.713Z,9.80
2023-05-17T00:41:37.966Z,7.30
2023-05-17T00:44:45.219Z,10.93
2023-05-17T00:47:52.995Z,8.93
2023-05-17T00:50:57.815Z,10.18
2023-05-17T00:54:01.944Z,8.23
2023-05-17T00:57:07.926Z,10.25
2023-05-17T01:00:13.970Z,6.82
2023-05-17T01:03:17.846Z,8.68
2023-05-17T01:06:22.053Z,6.25
2023-05-17T01:09:25.405Z,5.28
2023-05-17T01:12:44.612Z,10.40
2023-05-17T01:16:11.674Z,5.03
2023-05-17T01:19:15.682Z,4.88
2023-05-17T01:22:42.871Z,7.85
2023-05-17T01:26:11.765Z,5.90
2023-05-17T01:29:18.564Z,8.57
2023-05-17T01:32:22.427Z,4.05
2023-05-17T01:35:29.541Z,7.57
2023-05-17T01:38:33.964Z,4.78
2023-05-17T01:41:48.228Z,6.00
2023-05-17T01:45:21.444Z,6.38
2023-05-17T01:48:38.115Z,2.83
2023-05-17T01:51:49.852Z,5.20
2023-05-17T01:55:12.521Z,3.05
2023-05-17T01:58:16.555Z,4.90
2023-05-17T02:01:20.341Z,6.07
2023-05-17T02:04:23.508Z,9.77
2023-05-17T02:07:26.481Z,4.68
2023-05-17T02:10:31.436Z,5.72
2023-05-17T02:13:35.012Z,5.25
2023-05-17T02:16:38.728Z,5.25
2023-05-17T02:19:42.702Z,2.75
2023-05-17T02:22:46.600Z,3.45
2023-05-17T02:25:50.508Z,6.32
2023-05-17T02:28:54.051Z,3.83
2023-05-17T02:31:58.071Z,3.20
2023-05-17T02:35:01.819Z,6.07
2023-05-17T02:38:05.963Z,4.35
2023-05-17T02:41:09.829Z,5.13
2023-05-17T02:44:13.600Z,3.92
2023-05-17T02:47:17.295Z,3.55
2023-05-17T02:50:21.070Z,4.18
2023-05-17T02:53:24.799Z,3.63
2023-05-17T02:56:28.630Z,3.72
2023-05-17T02:59:32.892Z,5.60
2023-05-17T03:02:37.735Z,5.55
2023-05-17T03:05:42.168Z,5.18
2023-05-17T03:08:45.944Z,3.50
2023-05-17T03:11:50.829Z,3.90
2023-05-17T03:18:58.473Z,5.25
2023-05-17T03:22:02.870Z,4.22
2023-05-17T03:25:10.090Z,5.60
2023-05-17T03:28:14.140Z,4.97
2023-05-17T03:31:19.098Z,7.13
2023-05-17T03:34:23.370Z,6.35
2023-05-17T03:37:27.723Z,6.22
2023-05-17T03:40:31.972Z,4.15
2023-05-17T03:43:37.025Z,8.07
2023-05-17T03:46:41.564Z,7.07
2023-05-17T03:49:46.540Z,6.30
2023-05-17T03:52:50.653Z,7.13
2023-05-17T03:55:55.329Z,5.35
2023-05-17T03:58:59.381Z,5.97
2023-05-17T04:02:06.416Z,8.57
2023-05-17T04:05:13.927Z,4.28
2023-05-17T04:08:21.932Z,6.82
2023-05-17T04:11:27.795Z,4.50
2023-05-17T04:14:33.743Z,6.45
2023-05-17T04:17:37.584Z,5.38
2023-05-17T04:20:41.556Z,6.85
2023-05-17T04:23:45.356Z,7.97
2023-05-17T04:26:51.012Z,4.43
2023-05-17T04:29:59.595Z,3.13
2023-05-17T04:33:04.101Z,3.65
2023-05-17T04:36:10.149Z,5.40
2023-05-17T04:39:15.776Z,4.78
2023-05-17T04:42:21.533Z,5.07
2023-05-17T04:45:30.688Z,5.40
2023-05-17T04:48:36.644Z,3.00
2023-05-17T04:51:40.752Z,3.58
2023-05-17T04:54:45.671Z,4.60
2023-05-17T04:57:49.604Z,4.47
2023-05-17T05:00:53.968Z,4.53
2023-05-17T05:04:01.247Z,4.50
2023-05-17T05:07:07.056Z,6.55
2023-05-17T05:10:11.443Z,6.80
2023-05-17T05:13:16.407Z,4.00
2023-05-17T05:16:20.551Z,4.28
2023-05-17T05:19:25.092Z,3.92
2023-05-17T05:22:30.301Z,3.58
2023-05-17T05:25:35.256Z,6.03
2023-05-17T05:28:40.619Z,5.03
2023-05-17T05:31:45.426Z,9.70
2023-05-17T05:34:50.568Z,3.28
2023-05-17T05:37:55.218Z,5.47
2023-05-17T05:40:59.417Z,4.28
2023-05-17T05:44:03.268Z,5.00
2023-05-17T05:47:08.299Z,10.52
2023-05-17T05:50:12.999Z,3.67
2023-05-17T05:53:19.911Z,4.18
2023-05-17T05:56:28.803Z,6.13
2023-05-17T05:59:34.109Z,4.07
2023-05-17T06:02:38.896Z,4.00
2023-05-17T06:05:43.255Z,3.85
2023-05-17T06:08:47.942Z,4.78
2023-05-17T06:11:54.933Z,6.78
2023-05-17T06:18:02.866Z,7.22
2023-05-17T06:21:06.269Z,6.03
2023-05-17T06:24:09.738Z,9.05
2023-05-17T06:27:13.140Z,5.75
2023-05-17T06:30:17.299Z,5.72
2023-05-17T06:33:21.429Z,12.15
2023-05-17T06:36:25.803Z,5.20
2023-05-17T06:39:29.623Z,4.07
2023-05-17T06:42:34.650Z,4.95
2023-05-17T06:45:38.865Z,4.68
2023-05-17T06:48:42.660Z,5.47
2023-05-17T06:51:46.414Z,5.20
2023-05-17T06:54:50.490Z,4.20
2023-05-17T06:57:54.301Z,6.53
2023-05-17T07:00:58.603Z,6.15
2023-05-17T07:04:05.005Z,6.50
2023-05-17T07:07:08.723Z,8.20
2023-05-17T07:10:12.631Z,6.90
2023-05-17T07:13:16.813Z,8.27
2023-05-17T07:16:20.373Z,10.32
2023-05-17T07:19:24.354Z,7.43
2023-05-17T07:22:28.132Z,8.73
2023-05-17T07:25:33.092Z,7.28
2023-05-17T07:28:37.017Z,5.00
2023-05-17T07:31:41.088Z,6.07
2023-05-17T07:34:45.178Z,10.57
2023-05-17T07:37:49.493Z,8.60
2023-05-17T07:40:53.278Z,5.47
2023-05-17T07:43:56.836Z,4.13
2023-05-17T07:47:00.001Z,5.93
2023-05-17T07:50:04.182Z,3.30
2023-05-17T07:53:07.804Z,4.38
2023-05-17T07:56:11.270Z,7.03
2023-05-17T07:59:14.773Z,4.65
2023-05-17T08:02:19.186Z,5.53
2023-05-17T08:05:24.723Z,13.80
2023-05-17T08:08:28.425Z,10.45
2023-05-17T08:11:35.214Z,8.95
2023-05-17T08:14:40.753Z,10.15
2023-05-17T08:17:45.231Z,9.00
2023-05-17T08:20:50.549Z,11.20
2023-05-17T08:23:54.657Z,9.05
2023-05-17T08:26:59.194Z,7.45
2023-05-17T08:30:07.017Z,4.18
2023-05-17T08:33:13.078Z,5.72
2023-05-17T08:36:18.010Z,5.10
2023-05-17T08:39:22.278Z,4.20
2023-05-17T08:42:26.962Z,5.28
2023-05-17T08:45:32.422Z,8.85
2023-05-17T08:48:42.869Z,4.95
2023-05-17T08:51:50.470Z,5.70
2023-05-17T08:54:55.032Z,5.97
2023-05-17T08:57:59.248Z,4.85
2023-05-17T09:01:03.802Z,5.43
2023-05-17T09:04:10.532Z,7.43
2023-05-17T09:07:17.172Z,4.63
2023-05-17T09:10:21.805Z,5.00
2023-05-17T09:13:26.546Z,9.90
2023-05-17T09:16:38.006Z,5.18
2023-05-17T09:19:46.517Z,7.68
2023-05-17T09:22:51.604Z,7.18
2023-05-17T09:25:55.490Z,7.25
2023-05-17T09:28:59.316Z,8.98
2023-05-17T09:32:17.504Z,7.40
2023-05-17T09:35:28.415Z,8.18
2023-05-17T09:38:33.248Z,13.43
2023-05-17T09:41:45.892Z,7.45
2023-05-17T09:44:58.193Z,8.88
2023-05-17T09:48:16.299Z,12.60
2023-05-17T09:51:20.257Z,20.95
2023-05-17T09:54:24.199Z,11.40
2023-05-17T09:57:37.658Z,6.38
2023-05-17T10:00:44.446Z,9.50
2023-05-17T10:06:53.534Z,6.72
2023-05-17T10:09:58.369Z,14.60
2023-05-17T10:13:02.645Z,12.00
2023-05-17T10:16:06.320Z,9.43
2023-05-17T10:19:12.157Z,7.28
2023-05-17T10:22:23.403Z,11.10
2023-05-17T10:25:28.218Z,17.42
2023-05-17T10:28:31.962Z,7.32
2023-05-17T10:31:37.023Z,10.80
2023-05-17T10:34:41.696Z,11.52
2023-05-17T10:37:45.286Z,11.07
2023-05-17T10:40:51.304Z,9.35
2023-05-17T10:43:56.299Z,8.90
2023-05-17T10:47:00.985Z,10.88
2023-05-17T10:50:12.536Z,16.48
2023-05-17T10:53:16.700Z,22.60
2023-05-17T10:56:22.406Z,8.75
2023-05-17T10:59:30.429Z,12.20
2023-05-17T11:02:35.708Z,13.35
2023-05-17T11:05:42.392Z,10.07
2023-05-17T11:09:06.364Z,19.45
2023-05-17T11:12:11.893Z,7.18
2023-05-17T11:15:19.309Z,8.90
2023-05-17T11:18:30.072Z,5.85
2023-05-17T11:21:34.325Z,9.50
2023-05-17T11:24:42.878Z,9.27
2023-05-17T11:27:52.235Z,7.53
2023-05-17T11:31:02.354Z,6.50
2023-05-17T11:34:06.313Z,8.35
2023-05-17T11:37:15.107Z,5.82
2023-05-17T11:40:27.053Z,5.95
2023-05-17T11:43:36.233Z,8.45
2023-05-17T11:46:41.748Z,6.25
2023-05-17T11:49:46.633Z,8.70
2023-05-17T11:52:50.465Z,9.23
2023-05-17T11:55:54.626Z,10.02
2023-05-17T11:59:01.718Z,8.32
2023-05-17T12:02:05.028Z,11.50
2023-05-17T12:05:09.993Z,9.10
2023-05-17T12:08:13.623Z,9.43
2023-05-17T12:11:18.196Z,11.90
2023-05-17T12:14:22.634Z,13.20
2023-05-17T12:17:34.044Z,12.38
2023-05-17T12:20:39.944Z,10.55
2023-05-17T12:23:51.355Z,18.30
2023-05-17T12:26:55.366Z,13.88
2023-05-17T12:29:59.744Z,13.80
2023-05-17T12:33:05.908Z,20.30
2023-05-17T12:36:13.849Z,6.18
2023-05-17T12:39:19.065Z,7.20
2023-05-17T12:42:22.898Z,9.32
2023-05-17T12:45:27.073Z,8.40
2023-05-17T12:48:32.069Z,5.50
2023-05-17T12:51:54.084Z,5.13
2023-05-17T12:55:00.403Z,9.10
2023-05-17T12:58:05.747Z,11.65
2023-05-17T13:01:14.338Z,14.18
2023-05-17T13:04:21.827Z,6.25
2023-05-17T13:07:32.762Z,9.73
2023-05-17T13:10:37.724Z,6.80
2023-05-17T13:13:42.688Z,7.82
2023-05-17T13:16:46.914Z,7.55
2023-05-17T13:19:50.429Z,8.30
2023-05-17T13:22:54.458Z,9.55
2023-05-17T13:25:57.803Z,8.15
2023-05-17T13:29:01.542Z,7.22
2023-05-17T13:32:06.101Z,7.53
2023-05-17T13:35:10.048Z,8.57
2023-05-17T13:38:13.024Z,3.70
2023-05-17T13:41:16.283Z,10.40
2023-05-17T13:44:19.743Z,6.03
2023-05-17T13:47:23.750Z,9.57
2023-05-17T13:50:27.601Z,6.78
2023-05-17T13:53:31.493Z,5.47
2023-05-17T13:56:36.144Z,4.70
2023-05-17T13:59:39.931Z,8.73
2023-05-17T14:02:44.195Z,4.93
2023-05-17T14:05:51.198Z,5.05
2023-05-17T14:08:56.415Z,5.60
2023-05-17T14:12:01.258Z,7.20
2023-05-17T14:15:05.859Z,9.20
2023-05-17T14:18:10.459Z,31.70
2023-05-17T14:21:14.287Z,41.03
2023-05-17T14:24:18.366Z,37.97
2023-05-17T14:27:22.219Z,37.17
2023-05-17T14:30:25.364Z,40.22
2023-05-17T14:33:29.930Z,38.05
2023-05-17T14:36:36.135Z,42.15
2023-05-17T14:39:39.321Z,33.05
2023-05-17T14:42:43.886Z,31.40
2023-05-17T14:45:47.947Z,28.00
2023-05-17T14:48:52.813Z,23.00
2023-05-17T14:51:57.185Z,30.38
2023-05-17T14:55:00.622Z,20.13
2023-05-17T14:58:04.305Z,17.95
2023-05-17T15:01:07.467Z,13.07
2023-05-17T15:04:11.641Z,15.88
2023-05-17T15:07:15.236Z,11.57
2023-05-17T15:10:18.944Z,11.90
2023-05-17T15:13:23.054Z,16.15
2023-05-17T15:16:27.217Z,19.13
2023-05-17T15:19:31.514Z,32.53
2023-05-17T15:22:35.312Z,39.17
2023-05-17T15:25:39.056Z,25.73
2023-05-17T15:28:44.897Z,28.95
2023-05-17T15:31:48.497Z,21.45
2023-05-17T15:34:53.858Z,21.98
2023-05-17T15:38:00.028Z,16.40
2023-05-17T15:41:08.532Z,17.67
2023-05-17T15:44:12.932Z,15.88
2023-05-17T15:47:16.760Z,14.23
2023-05-17T15:50:20.629Z,14.50
2023-05-17T15:53:24.827Z,13.40
2023-05-17T15:56:28.301Z,15.57
2023-05-17T15:59:32.312Z,14.75
2023-05-17T16:02:35.832Z,13.30
2023-05-17T16:05:40.383Z,16.27
2023-05-17T16:08:43.916Z,17.02
2023-05-17T16:11:48.258Z,20.77
2023-05-17T16:14:51.744Z,16.55
2023-05-17T16:17:55.647Z,15.13
2023-05-17T16:21:06.040Z,17.73
2023-05-17T16:24:09.646Z,15.15
2023-05-17T16:27:12.677Z,14.02
2023-05-17T16:30:17.164Z,19.05
2023-05-17T16:33:21.151Z,26.05
2023-05-17T16:36:26.196Z,27.05
2023-05-17T16:39:29.974Z,28.20
2023-05-17T16:42:33.784Z,46.83
2023-05-17T16:45:37.698Z,68.60
2023-05-17T16:48:41.788Z,66.18
2023-05-17T16:51:46.101Z,70.75
2023-05-17T16:54:49.700Z,83.50
2023-05-17T16:57:53.242Z,79.90
2023-05-17T17:00:57.497Z,68.57
2023-05-17T17:04:01.464Z,64.78
2023-05-17T17:07:05.239Z,84.22
2023-05-17T17:10:09.494Z,64.05
2023-05-17T17:13:13.291Z,56.60
2023-05-17T17:16:17.931Z,63.70
2023-05-17T17:19:21.970Z,58.30
2023-05-17T17:22:25.617Z,69.97
2023-05-17T17:25:29.081Z,51.53
2023-05-17T17:28:32.505Z,41.45
2023-05-17T17:31:36.001Z,51.17
2023-05-17T17:34:39.951Z,39.50
2023-05-17T17:37:43.833Z,31.83
2023-05-17T17:40:47.257Z,65.75
2023-05-17T17:43:51.669Z,43.85
2023-05-17T17:46:55.477Z,65.18
2023-05-17T17:49:59.147Z,95.28
2023-05-17T17:53:02.891Z,73.50
2023-05-17T17:56:08.074Z,70.38
2023-05-17T17:59:13.028Z,46.65
2023-05-17T18:02:17.078Z,40.22
2023-05-17T18:05:20.443Z,40.90
2023-05-17T18:08:23.845Z,31.92
2023-05-17T18:11:27.664Z,37.22
2023-05-17T18:14:31.719Z,28.90
2023-05-17T18:17:35.548Z,33.17
2023-05-17T18:20:39.756Z,29.40
2023-05-17T18:23:43.487Z,34.28
2023-05-17T18:26:47.221Z,30.27
2023-05-17T18:29:51.141Z,36.45
2023-05-17T18:32:55.014Z,29.70
2023-05-17T18:35:58.469Z,30.38
2023-05-17T18:39:03.080Z,27.48
2023-05-17T18:42:06.716Z,31.65
2023-05-17T18:45:11.577Z,58.72
2023-05-17T18:48:15.356Z,57.55
2023-05-17T18:51:19.183Z,53.30
2023-05-17T18:54:22.795Z,41.58
2023-05-17T18:57:25.940Z,40.67
2023-05-17T19:00:29.363Z,68.50
2023-05-17T19:03:33.441Z,43.33
2023-05-17T19:06:36.998Z,37.65
2023-05-17T19:09:40.436Z,30.00
2023-05-17T19:12:45.727Z,23.98
2023-05-17T19:15:50.258Z,31.42
2023-05-17T19:18:54.084Z,27.70
2023-05-17T19:21:58.465Z,28.98
2023-05-17T19:25:01.420Z,27.13
2023-05-17T19:28:05.662Z,24.58
2023-05-17T19:31:09.374Z,27.95
2023-05-17T19:34:13.536Z,25.67
2023-05-17T19:37:17.151Z,26.92
2023-05-17T19:40:23.040Z,26.75
2023-05-17T19:43:27.702Z,28.50
2023-05-17T19:46:31.716Z,25.50
2023-05-17T19:49:35.328Z,30.80
2023-05-17T19:52:40.069Z,29.45
2023-05-17T19:55:43.158Z,26.40
2023-05-17T19:58:47.149Z,27.52
2023-05-17T20:01:51.936Z,23.30
2023-05-17T20:04:55.777Z,22.48
2023-05-17T20:08:00.053Z,23.38
2023-05-17T20:11:03.824Z,27.58
2023-05-17T20:14:07.596Z,16.92
2023-05-17T20:17:11.129Z,18.00
2023-05-17T20:20:14.938Z,21.23
2023-05-17T20:23:18.778Z,15.27
2023-05-17T20:26:26.307Z,17.45
2023-05-17T20:29:30.664Z,18.35
2023-05-17T20:32:34.301Z,22.88
2023-05-17T20:35:38.132Z,41.90
2023-05-17T20:38:44.338Z,37.63
2023-05-17T20:41:48.629Z,25.13
2023-05-17T20:44:54.290Z,29.75
2023-05-17T20:47:58.362Z,20.88
2023-05-17T20:51:03.029Z,18.88
2023-05-17T20:54:07.010Z,20.80
2023-05-17T20:57:10.657Z,25.83
2023-05-17T21:00:17.833Z,31.63
2023-05-17T21:03:21.865Z,31.77
2023-05-17T21:06:29.644Z,30.38
2023-05-17T21:09:35.362Z,27.45
2023-05-17T21:12:39.152Z,36.15
2023-05-17T21:15:42.742Z,24.05
2023-05-17T21:18:46.903Z,27.85
2023-05-17T21:21:50.588Z,29.67
2023-05-17T21:24:54.448Z,37.40
2023-05-17T21:27:58.109Z,29.70
2023-05-17T21:31:02.854Z,36.15
2023-05-17T21:34:06.560Z,30.70
2023-05-17T21:37:10.393Z,35.78
2023-05-17T21:40:15.282Z,33.90
2023-05-17T21:43:19.167Z,37.60
2023-05-17T21:46:23.340Z,41.72
2023-05-17T21:49:26.520Z,43.80
2023-05-17T21:52:30.232Z,38.90
2023-05-17T21:55:36.889Z,41.50
2023-05-17T21:58:51.868Z,41.85
2023-05-17T22:01:57.811Z,40.45
2023-05-17T22:05:03.134Z,38.78
2023-05-17T22:08:06.654Z,37.10
2023-05-17T22:11:12.002Z,31.40
2023-05-17T22:14:16.927Z,31.50
2023-05-17T22:17:32.158Z,23.92
2023-05-17T22:20:39.199Z,23.27
2023-05-17T22:23:43.535Z,26.70
2023-05-17T22:26:47.134Z,35.20
2023-05-17T22:29:50.755Z,33.38
2023-05-17T22:32:57.599Z,36.80
2023-05-17T22:36:03.173Z,36.65
2023-05-17T22:39:06.980Z,41.28
2023-05-17T22:42:10.327Z,41.45
2023-05-17T22:45:15.008Z,31.15
2023-05-17T22:48:18.017Z,37.85
2023-05-17T22:51:22.930Z,45.83
2023-05-17T22:54:27.427Z,37.13
2023-05-17T22:57:30.828Z,29.15
2023-05-17T23:00:33.925Z,38.63
2023-05-17T23:03:37.240Z,34.10
2023-05-17T23:06:40.952Z,35.85
2023-05-17T23:09:44.397Z,37.90
2023-05-17T23:12:47.774Z,28.52
2023-05-17T23:15:53.373Z,30.25
2023-05-17T23:18:56.935Z,26.10
2023-05-17T23:22:04.120Z,27.25
2023-05-17T23:25:08.273Z,24.58
2023-05-17T23:28:12.481Z,25.83
2023-05-17T23:31:16.847Z,30.17
2023-05-17T23:34:20.422Z,31.95
2023-05-17T23:37:24.619Z,26.83
2023-05-17T23:40:28.550Z,36.60
2023-05-17T23:43:32.269Z,31.48
2023-05-17T23:46:37.331Z,26.42
2023-05-17T23:49:40.634Z,34.40
2023-05-17T23:52:44.431Z,35.67
2023-05-17T23:55:48.264Z,32.17
2023-05-17T23:58:52.171Z,32.00
